Terminal Aerodrome Forecast
Issued by NWS

Home | Current Version | Previous Version | Graphics & Text | Print | Product List | Glossary On
Versions: 1 2 3 4 5 6 7 8 9 10 11 12 13 14 15 16 17 18
000
FTUS43 KABR 021100
TAFMBG
TAF
KMBG 021120Z 0212/0312 13011KT P6SM BKN200
     FM021800 16019G27KT P6SM SKC
     FM030000 12007KT P6SM OVC250
     FM030600 34020G30KT P6SM OVC025=

USA.gov is the U.S. government's official web portal to all federal, state and local government web resources and services.